sensor_id;sensor_type;location;lat;lon;timestamp;noise_LAeq;noise_LA_min;noise_LA_max;noise_LA01;noise_LA95
40103;Laerm;25814;48.550;9.108;2023-07-24T00:00:51;32.48;29.46;39.27;;
40103;Laerm;25814;48.550;9.108;2023-07-24T00:03:17;31.02;29.41;44.53;;
40103;Laerm;25814;48.550;9.108;2023-07-24T00:05:43;30.30;29.32;32.43;;
40103;Laerm;25814;48.550;9.108;2023-07-24T00:08:09;30.32;29.25;40.53;;
40103;Laerm;25814;48.550;9.108;2023-07-24T00:10:35;30.43;29.36;44.74;;
40103;Laerm;25814;48.550;9.108;2023-07-24T00:13:01;30.41;29.43;43.44;;
40103;Laerm;25814;48.550;9.108;2023-07-24T00:15:28;30.37;29.46;33.48;;
40103;Laerm;25814;48.550;9.108;2023-07-24T00:17:54;30.42;29.41;35.22;;
40103;Laerm;25814;48.550;9.108;2023-07-24T00:20:20;32.31;29.40;43.08;;
40103;Laerm;25814;48.550;9.108;2023-07-24T00:22:46;30.57;29.68;34.99;;
40103;Laerm;25814;48.550;9.108;2023-07-24T00:25:12;30.50;29.47;39.84;;
40103;Laerm;25814;48.550;9.108;2023-07-24T00:27:38;30.38;29.45;32.50;;
40103;Laerm;25814;48.550;9.108;2023-07-24T00:30:05;30.46;29.36;32.19;;
40103;Laerm;25814;48.550;9.108;2023-07-24T00:32:31;30.46;29.33;44.56;;
40103;Laerm;25814;48.550;9.108;2023-07-24T00:34:57;30.29;29.33;32.33;;
40103;Laerm;25814;48.550;9.108;2023-07-24T00:37:24;30.31;29.46;32.48;;
40103;Laerm;25814;48.550;9.108;2023-07-24T00:39:49;30.67;29.41;40.73;;
40103;Laerm;25814;48.550;9.108;2023-07-24T00:42:15;30.42;29.52;33.44;;
40103;Laerm;25814;48.550;9.108;2023-07-24T00:44:41;30.33;29.34;32.37;;
40103;Laerm;25814;48.550;9.108;2023-07-24T00:47:08;30.55;29.60;32.44;;
40103;Laerm;25814;48.550;9.108;2023-07-24T00:49:34;30.40;29.43;32.62;;
40103;Laerm;25814;48.550;9.108;2023-07-24T00:52:01;31.67;29.38;40.41;;
40103;Laerm;25814;48.550;9.108;2023-07-24T00:54:30;30.52;29.31;45.27;;
40103;Laerm;25814;48.550;9.108;2023-07-24T00:56:58;30.40;29.47;37.28;;
40103;Laerm;25814;48.550;9.108;2023-07-24T00:59:24;30.38;29.50;32.32;;
40103;Laerm;25814;48.550;9.108;2023-07-24T01:01:51;30.40;29.19;33.07;;
40103;Laerm;25814;48.550;9.108;2023-07-24T01:04:17;30.37;29.47;32.39;;
40103;Laerm;25814;48.550;9.108;2023-07-24T01:06:44;30.38;29.42;35.71;;
40103;Laerm;25814;48.550;9.108;2023-07-24T01:09:11;30.45;29.28;44.48;;
40103;Laerm;25814;48.550;9.108;2023-07-24T01:11:42;30.37;29.54;32.45;;
40103;Laerm;25814;48.550;9.108;2023-07-24T01:16:41;30.38;29.46;34.39;;
40103;Laerm;25814;48.550;9.108;2023-07-24T01:22:20;32.70;29.47;44.28;;
40103;Laerm;25814;48.550;9.108;2023-07-24T01:27:28;32.82;29.65;41.24;;
40103;Laerm;25814;48.550;9.108;2023-07-24T01:29:54;30.37;29.36;34.41;;
40103;Laerm;25814;48.550;9.108;2023-07-24T01:32:20;30.36;29.38;32.50;;
40103;Laerm;25814;48.550;9.108;2023-07-24T01:34:47;30.46;29.44;45.53;;
40103;Laerm;25814;48.550;9.108;2023-07-24T01:37:14;30.33;29.43;33.04;;
40103;Laerm;25814;48.550;9.108;2023-07-24T01:39:43;30.40;29.38;33.27;;
40103;Laerm;25814;48.550;9.108;2023-07-24T01:42:10;30.45;29.39;32.74;;
40103;Laerm;25814;48.550;9.108;2023-07-24T01:44:37;30.56;29.24;34.77;;
40103;Laerm;25814;48.550;9.108;2023-07-24T01:47:03;30.46;29.44;33.02;;
40103;Laerm;25814;48.550;9.108;2023-07-24T01:49:29;30.35;29.41;32.53;;
40103;Laerm;25814;48.550;9.108;2023-07-24T01:51:55;30.41;29.43;32.46;;
40103;Laerm;25814;48.550;9.108;2023-07-24T01:54:22;30.50;29.45;41.25;;
40103;Laerm;25814;48.550;9.108;2023-07-24T01:56:48;30.34;29.18;32.22;;
40103;Laerm;25814;48.550;9.108;2023-07-24T01:59:14;30.44;29.28;40.24;;
40103;Laerm;25814;48.550;9.108;2023-07-24T02:01:40;30.47;29.34;32.34;;
40103;Laerm;25814;48.550;9.108;2023-07-24T02:04:07;30.48;29.39;33.60;;
40103;Laerm;25814;48.550;9.108;2023-07-24T02:06:33;30.40;29.45;32.52;;
40103;Laerm;25814;48.550;9.108;2023-07-24T02:08:59;30.40;29.49;32.69;;
40103;Laerm;25814;48.550;9.108;2023-07-24T02:11:25;30.43;29.50;32.24;;
40103;Laerm;25814;48.550;9.108;2023-07-24T02:13:51;30.42;29.37;32.43;;
40103;Laerm;25814;48.550;9.108;2023-07-24T02:16:17;30.80;29.56;44.84;;
40103;Laerm;25814;48.550;9.108;2023-07-24T02:18:43;31.61;29.57;41.70;;
40103;Laerm;25814;48.550;9.108;2023-07-24T02:21:09;31.24;29.94;34.91;;
40103;Laerm;25814;48.550;9.108;2023-07-24T02:23:35;31.04;29.73;41.13;;
40103;Laerm;25814;48.550;9.108;2023-07-24T02:26:01;30.99;29.81;33.80;;
40103;Laerm;25814;48.550;9.108;2023-07-24T02:28:28;30.72;29.55;33.50;;
40103;Laerm;25814;48.550;9.108;2023-07-24T02:30:54;31.30;29.71;48.82;;
40103;Laerm;25814;48.550;9.108;2023-07-24T02:33:22;34.42;29.84;47.85;;
40103;Laerm;25814;48.550;9.108;2023-07-24T02:35:50;31.00;29.93;39.97;;
40103;Laerm;25814;48.550;9.108;2023-07-24T02:38:17;35.37;29.94;52.02;;
40103;Laerm;25814;48.550;9.108;2023-07-24T02:40:44;34.42;30.16;45.57;;
40103;Laerm;25814;48.550;9.108;2023-07-24T02:43:10;32.78;30.35;45.82;;
40103;Laerm;25814;48.550;9.108;2023-07-24T02:45:37;33.83;30.63;44.01;;
40103;Laerm;25814;48.550;9.108;2023-07-24T02:48:03;31.49;29.94;41.19;;
40103;Laerm;25814;48.550;9.108;2023-07-24T02:50:29;32.24;29.84;40.30;;
40103;Laerm;25814;48.550;9.108;2023-07-24T02:52:55;34.22;29.92;46.46;;
40103;Laerm;25814;48.550;9.108;2023-07-24T02:55:21;31.55;29.91;40.70;;
40103;Laerm;25814;48.550;9.108;2023-07-24T02:57:47;31.44;30.22;42.67;;
40103;Laerm;25814;48.550;9.108;2023-07-24T03:00:13;31.36;30.07;35.66;;
40103;Laerm;25814;48.550;9.108;2023-07-24T03:02:39;31.69;30.34;34.69;;
40103;Laerm;25814;48.550;9.108;2023-07-24T03:05:06;31.68;30.33;43.22;;
40103;Laerm;25814;48.550;9.108;2023-07-24T03:07:32;32.46;30.61;36.51;;
40103;Laerm;25814;48.550;9.108;2023-07-24T03:09:58;32.35;30.50;37.18;;
40103;Laerm;25814;48.550;9.108;2023-07-24T03:12:24;32.28;30.96;39.44;;
40103;Laerm;25814;48.550;9.108;2023-07-24T03:14:50;32.46;31.14;36.84;;
40103;Laerm;25814;48.550;9.108;2023-07-24T03:17:16;33.55;31.74;43.39;;
40103;Laerm;25814;48.550;9.108;2023-07-24T03:19:42;33.48;31.20;39.96;;
40103;Laerm;25814;48.550;9.108;2023-07-24T03:22:08;32.98;30.95;40.52;;
40103;Laerm;25814;48.550;9.108;2023-07-24T03:24:35;32.92;31.24;35.56;;
40103;Laerm;25814;48.550;9.108;2023-07-24T03:27:01;32.68;30.97;41.86;;
40103;Laerm;25814;48.550;9.108;2023-07-24T03:29:27;39.20;30.91;60.22;;
40103;Laerm;25814;48.550;9.108;2023-07-24T03:31:53;33.11;31.03;40.95;;
40103;Laerm;25814;48.550;9.108;2023-07-24T03:34:20;35.67;31.85;49.73;;
40103;Laerm;25814;48.550;9.108;2023-07-24T03:36:46;34.00;31.62;41.76;;
40103;Laerm;25814;48.550;9.108;2023-07-24T03:39:12;32.46;30.90;36.69;;
40103;Laerm;25814;48.550;9.108;2023-07-24T03:41:39;32.66;30.88;44.40;;
40103;Laerm;25814;48.550;9.108;2023-07-24T03:44:05;32.39;31.19;34.87;;
40103;Laerm;25814;48.550;9.108;2023-07-24T03:46:34;32.85;31.38;40.42;;
40103;Laerm;25814;48.550;9.108;2023-07-24T03:49:01;37.20;31.67;52.77;;
40103;Laerm;25814;48.550;9.108;2023-07-24T03:51:27;37.30;31.40;49.02;;
40103;Laerm;25814;48.550;9.108;2023-07-24T03:53:53;42.74;31.65;60.91;;
40103;Laerm;25814;48.550;9.108;2023-07-24T03:56:19;48.50;31.82;62.38;;
40103;Laerm;25814;48.550;9.108;2023-07-24T03:58:45;44.82;31.99;64.73;;
40103;Laerm;25814;48.550;9.108;2023-07-24T04:01:11;47.37;31.57;63.21;;
40103;Laerm;25814;48.550;9.108;2023-07-24T04:03:37;46.80;33.02;62.67;;
40103;Laerm;25814;48.550;9.108;2023-07-24T04:06:03;37.61;32.12;50.72;;
40103;Laerm;25814;48.550;9.108;2023-07-24T04:08:29;38.40;31.89;48.56;;
40103;Laerm;25814;48.550;9.108;2023-07-24T04:10:55;37.69;32.24;50.42;;
40103;Laerm;25814;48.550;9.108;2023-07-24T04:13:22;38.00;32.53;49.41;;
40103;Laerm;25814;48.550;9.108;2023-07-24T04:15:48;36.60;32.02;48.55;;
40103;Laerm;25814;48.550;9.108;2023-07-24T04:18:14;35.69;32.11;49.83;;
40103;Laerm;25814;48.550;9.108;2023-07-24T04:20:40;34.99;31.78;47.24;;
40103;Laerm;25814;48.550;9.108;2023-07-24T04:23:06;35.21;31.73;47.57;;
40103;Laerm;25814;48.550;9.108;2023-07-24T04:25:32;36.49;32.00;49.99;;
40103;Laerm;25814;48.550;9.108;2023-07-24T04:27:58;35.54;32.34;47.84;;
40103;Laerm;25814;48.550;9.108;2023-07-24T04:30:24;39.83;32.01;52.31;;
40103;Laerm;25814;48.550;9.108;2023-07-24T04:32:50;45.48;33.23;55.63;;
40103;Laerm;25814;48.550;9.108;2023-07-24T04:35:16;43.94;33.36;52.17;;
40103;Laerm;25814;48.550;9.108;2023-07-24T04:37:42;44.05;32.85;52.96;;
40103;Laerm;25814;48.550;9.108;2023-07-24T04:40:08;38.00;32.31;53.83;;
40103;Laerm;25814;48.550;9.108;2023-07-24T04:42:35;39.57;33.43;49.56;;
40103;Laerm;25814;48.550;9.108;2023-07-24T04:45:01;37.39;32.52;49.29;;
40103;Laerm;25814;48.550;9.108;2023-07-24T04:47:27;37.73;32.37;53.59;;
40103;Laerm;25814;48.550;9.108;2023-07-24T04:49:53;38.35;32.08;50.84;;
40103;Laerm;25814;48.550;9.108;2023-07-24T04:52:20;37.94;32.38;50.43;;
40103;Laerm;25814;48.550;9.108;2023-07-24T04:54:46;38.06;32.66;51.32;;
40103;Laerm;25814;48.550;9.108;2023-07-24T04:57:12;36.87;32.45;51.01;;
40103;Laerm;25814;48.550;9.108;2023-07-24T04:59:38;39.41;32.64;58.67;;
40103;Laerm;25814;48.550;9.108;2023-07-24T05:02:04;44.79;32.62;53.86;;
40103;Laerm;25814;48.550;9.108;2023-07-24T05:04:30;44.01;35.02;56.40;;
40103;Laerm;25814;48.550;9.108;2023-07-24T05:06:56;41.57;34.91;51.06;;
40103;Laerm;25814;48.550;9.108;2023-07-24T05:09:22;40.95;34.71;54.44;;
40103;Laerm;25814;48.550;9.108;2023-07-24T05:11:48;41.78;33.15;52.23;;
40103;Laerm;25814;48.550;9.108;2023-07-24T05:14:14;38.01;32.41;53.29;;
40103;Laerm;25814;48.550;9.108;2023-07-24T05:16:40;36.35;33.18;42.69;;
40103;Laerm;25814;48.550;9.108;2023-07-24T05:19:07;37.01;33.78;52.41;;
40103;Laerm;25814;48.550;9.108;2023-07-24T05:21:33;40.36;33.82;55.25;;
40103;Laerm;25814;48.550;9.108;2023-07-24T05:23:59;39.42;32.49;53.94;;
40103;Laerm;25814;48.550;9.108;2023-07-24T05:26:25;46.88;32.99;61.13;;
40103;Laerm;25814;48.550;9.108;2023-07-24T05:28:51;37.87;32.72;53.83;;
40103;Laerm;25814;48.550;9.108;2023-07-24T05:31:18;52.26;33.77;69.80;;
40103;Laerm;25814;48.550;9.108;2023-07-24T05:33:44;40.06;34.10;50.52;;
40103;Laerm;25814;48.550;9.108;2023-07-24T05:36:10;39.90;33.67;50.38;;
40103;Laerm;25814;48.550;9.108;2023-07-24T05:38:36;46.17;34.81;68.60;;
40103;Laerm;25814;48.550;9.108;2023-07-24T05:41:03;40.20;34.03;58.61;;
40103;Laerm;25814;48.550;9.108;2023-07-24T05:43:30;40.85;33.43;56.57;;
40103;Laerm;25814;48.550;9.108;2023-07-24T05:45:58;43.11;33.79;64.44;;
40103;Laerm;25814;48.550;9.108;2023-07-24T05:48:24;39.80;33.37;48.97;;
40103;Laerm;25814;48.550;9.108;2023-07-24T05:50:50;38.56;33.57;50.79;;
40103;Laerm;25814;48.550;9.108;2023-07-24T05:53:17;40.61;34.29;55.54;;
40103;Laerm;25814;48.550;9.108;2023-07-24T05:55:43;39.30;33.63;53.82;;
40103;Laerm;25814;48.550;9.108;2023-07-24T05:58:09;39.48;33.70;56.07;;
40103;Laerm;25814;48.550;9.108;2023-07-24T06:00:36;40.37;33.46;51.02;;
40103;Laerm;25814;48.550;9.108;2023-07-24T06:03:02;41.69;33.26;54.41;;
40103;Laerm;25814;48.550;9.108;2023-07-24T06:05:28;39.39;33.61;56.25;;
40103;Laerm;25814;48.550;9.108;2023-07-24T06:07:54;40.29;34.45;53.43;;
40103;Laerm;25814;48.550;9.108;2023-07-24T06:10:20;37.78;34.21;48.01;;
40103;Laerm;25814;48.550;9.108;2023-07-24T06:12:46;41.95;35.70;51.83;;
40103;Laerm;25814;48.550;9.108;2023-07-24T06:15:13;40.11;34.12;51.39;;
40103;Laerm;25814;48.550;9.108;2023-07-24T06:17:39;40.91;35.13;51.07;;
40103;Laerm;25814;48.550;9.108;2023-07-24T06:20:06;41.47;35.23;51.36;;
40103;Laerm;25814;48.550;9.108;2023-07-24T06:22:32;41.33;34.35;52.49;;
40103;Laerm;25814;48.550;9.108;2023-07-24T06:24:58;41.07;34.96;51.51;;
40103;Laerm;25814;48.550;9.108;2023-07-24T06:27:24;40.65;34.49;51.88;;
40103;Laerm;25814;48.550;9.108;2023-07-24T06:29:50;38.00;34.45;45.79;;
40103;Laerm;25814;48.550;9.108;2023-07-24T06:32:16;38.55;34.50;48.05;;
40103;Laerm;25814;48.550;9.108;2023-07-24T06:34:43;38.83;33.28;50.99;;
40103;Laerm;25814;48.550;9.108;2023-07-24T06:37:09;38.92;34.79;51.62;;
40103;Laerm;25814;48.550;9.108;2023-07-24T06:39:35;43.23;34.85;56.64;;
40103;Laerm;25814;48.550;9.108;2023-07-24T06:42:01;37.46;34.81;48.43;;
40103;Laerm;25814;48.550;9.108;2023-07-24T06:44:27;37.71;33.71;50.80;;
40103;Laerm;25814;48.550;9.108;2023-07-24T06:46:53;37.69;33.70;55.77;;
40103;Laerm;25814;48.550;9.108;2023-07-24T06:49:19;37.79;33.48;50.02;;
40103;Laerm;25814;48.550;9.108;2023-07-24T06:51:45;39.42;33.12;55.46;;
40103;Laerm;25814;48.550;9.108;2023-07-24T06:54:11;41.63;32.95;56.40;;
40103;Laerm;25814;48.550;9.108;2023-07-24T06:56:37;40.24;33.15;56.46;;
40103;Laerm;25814;48.550;9.108;2023-07-24T06:59:03;40.55;33.27;55.12;;
40103;Laerm;25814;48.550;9.108;2023-07-24T07:01:29;41.20;33.46;53.48;;
40103;Laerm;25814;48.550;9.108;2023-07-24T07:03:55;38.15;32.88;52.35;;
40103;Laerm;25814;48.550;9.108;2023-07-24T07:06:21;39.04;33.28;50.20;;
40103;Laerm;25814;48.550;9.108;2023-07-24T07:08:48;36.45;33.07;45.90;;
40103;Laerm;25814;48.550;9.108;2023-07-24T07:11:14;39.27;33.17;50.35;;
40103;Laerm;25814;48.550;9.108;2023-07-24T07:13:40;39.60;33.49;50.88;;
40103;Laerm;25814;48.550;9.108;2023-07-24T07:16:06;49.06;33.63;74.63;;
40103;Laerm;25814;48.550;9.108;2023-07-24T07:18:32;51.93;34.64;77.01;;
40103;Laerm;25814;48.550;9.108;2023-07-24T07:20:58;46.95;34.48;69.46;;
40103;Laerm;25814;48.550;9.108;2023-07-24T07:23:24;44.87;33.61;69.40;;
40103;Laerm;25814;48.550;9.108;2023-07-24T07:25:51;40.98;33.50;51.07;;
40103;Laerm;25814;48.550;9.108;2023-07-24T07:28:17;40.50;34.63;50.98;;
40103;Laerm;25814;48.550;9.108;2023-07-24T07:30:45;35.19;32.53;44.88;;
40103;Laerm;25814;48.550;9.108;2023-07-24T07:33:11;36.17;32.66;49.74;;
40103;Laerm;25814;48.550;9.108;2023-07-24T07:35:37;36.90;33.38;45.08;;
40103;Laerm;25814;48.550;9.108;2023-07-24T07:38:03;42.24;32.90;51.19;;
40103;Laerm;25814;48.550;9.108;2023-07-24T07:40:29;42.25;32.49;54.59;;
40103;Laerm;25814;48.550;9.108;2023-07-24T07:42:56;39.98;32.91;55.01;;
40103;Laerm;25814;48.550;9.108;2023-07-24T07:45:23;44.17;33.03;69.82;;
40103;Laerm;25814;48.550;9.108;2023-07-24T07:47:50;46.09;32.00;66.45;;
40103;Laerm;25814;48.550;9.108;2023-07-24T07:50:18;53.55;32.00;72.87;;
40103;Laerm;25814;48.550;9.108;2023-07-24T07:52:44;56.64;32.18;76.23;;
40103;Laerm;25814;48.550;9.108;2023-07-24T07:55:10;44.30;31.56;71.35;;
40103;Laerm;25814;48.550;9.108;2023-07-24T07:57:37;37.94;32.15;51.44;;
40103;Laerm;25814;48.550;9.108;2023-07-24T08:00:04;35.12;31.51;44.35;;
40103;Laerm;25814;48.550;9.108;2023-07-24T08:02:34;41.76;33.15;59.25;;
40103;Laerm;25814;48.550;9.108;2023-07-24T08:05:00;38.34;34.17;55.60;;
40103;Laerm;25814;48.550;9.108;2023-07-24T08:07:26;38.56;33.75;50.76;;
40103;Laerm;25814;48.550;9.108;2023-07-24T08:09:52;37.74;33.80;47.48;;
40103;Laerm;25814;48.550;9.108;2023-07-24T08:12:18;45.25;37.19;55.08;;
40103;Laerm;25814;48.550;9.108;2023-07-24T08:14:44;38.57;32.38;52.03;;
40103;Laerm;25814;48.550;9.108;2023-07-24T08:17:10;36.99;32.72;44.49;;
40103;Laerm;25814;48.550;9.108;2023-07-24T08:19:36;41.24;32.83;51.23;;
40103;Laerm;25814;48.550;9.108;2023-07-24T08:22:02;37.51;31.12;51.43;;
40103;Laerm;25814;48.550;9.108;2023-07-24T08:24:33;38.91;32.45;47.25;;
40103;Laerm;25814;48.550;9.108;2023-07-24T08:26:59;33.13;30.86;39.79;;
40103;Laerm;25814;48.550;9.108;2023-07-24T08:29:25;34.14;31.07;47.48;;
40103;Laerm;25814;48.550;9.108;2023-07-24T08:31:51;34.45;31.58;46.17;;
40103;Laerm;25814;48.550;9.108;2023-07-24T08:34:17;40.18;32.01;48.59;;
40103;Laerm;25814;48.550;9.108;2023-07-24T08:36:43;42.02;34.08;52.78;;
40103;Laerm;25814;48.550;9.108;2023-07-24T08:39:09;39.81;31.87;50.64;;
40103;Laerm;25814;48.550;9.108;2023-07-24T08:41:36;40.01;32.05;52.26;;
40103;Laerm;25814;48.550;9.108;2023-07-24T08:44:05;40.64;36.16;51.80;;
40103;Laerm;25814;48.550;9.108;2023-07-24T08:46:38;42.62;37.34;54.67;;
40103;Laerm;25814;48.550;9.108;2023-07-24T08:49:13;47.89;38.96;62.39;;
40103;Laerm;25814;48.550;9.108;2023-07-24T08:51:41;45.75;34.65;60.27;;
40103;Laerm;25814;48.550;9.108;2023-07-24T08:54:08;44.22;33.73;58.92;;
40103;Laerm;25814;48.550;9.108;2023-07-24T08:56:36;44.34;36.65;57.84;;
40103;Laerm;25814;48.550;9.108;2023-07-24T08:59:03;41.73;34.05;53.20;;
40103;Laerm;25814;48.550;9.108;2023-07-24T09:01:29;40.01;32.43;52.56;;
40103;Laerm;25814;48.550;9.108;2023-07-24T09:03:56;36.31;32.94;45.60;;
40103;Laerm;25814;48.550;9.108;2023-07-24T09:06:22;38.56;31.97;51.45;;
40103;Laerm;25814;48.550;9.108;2023-07-24T09:08:48;39.72;31.81;52.74;;
40103;Laerm;25814;48.550;9.108;2023-07-24T09:11:14;42.93;32.34;53.97;;
40103;Laerm;25814;48.550;9.108;2023-07-24T09:13:43;40.68;32.05;51.38;;
40103;Laerm;25814;48.550;9.108;2023-07-24T09:16:20;37.10;32.02;49.64;;
40103;Laerm;25814;48.550;9.108;2023-07-24T09:18:47;36.83;32.20;48.76;;
40103;Laerm;25814;48.550;9.108;2023-07-24T09:21:13;38.93;31.96;52.58;;
40103;Laerm;25814;48.550;9.108;2023-07-24T09:23:39;35.48;31.84;51.46;;
40103;Laerm;25814;48.550;9.108;2023-07-24T09:26:09;36.63;31.73;49.17;;
40103;Laerm;25814;48.550;9.108;2023-07-24T09:28:36;39.25;32.61;52.25;;
40103;Laerm;25814;48.550;9.108;2023-07-24T09:31:02;40.46;33.58;51.69;;
40103;Laerm;25814;48.550;9.108;2023-07-24T09:33:38;44.21;38.66;55.09;;
40103;Laerm;25814;48.550;9.108;2023-07-24T09:36:06;43.79;38.56;50.09;;
40103;Laerm;25814;48.550;9.108;2023-07-24T09:38:34;39.99;32.25;53.10;;
40103;Laerm;25814;48.550;9.108;2023-07-24T09:41:02;42.23;33.02;56.19;;
40103;Laerm;25814;48.550;9.108;2023-07-24T09:43:29;41.99;33.31;52.47;;
40103;Laerm;25814;48.550;9.108;2023-07-24T09:45:56;39.77;32.21;53.94;;
40103;Laerm;25814;48.550;9.108;2023-07-24T09:48:25;39.43;31.63;52.81;;
40103;Laerm;25814;48.550;9.108;2023-07-24T09:50:56;38.34;31.53;52.20;;
40103;Laerm;25814;48.550;9.108;2023-07-24T09:56:10;36.52;31.57;50.79;;
40103;Laerm;25814;48.550;9.108;2023-07-24T09:58:38;46.06;32.48;58.10;;
40103;Laerm;25814;48.550;9.108;2023-07-24T10:01:06;48.57;42.20;56.46;;
40103;Laerm;25814;48.550;9.108;2023-07-24T10:03:40;50.99;47.41;53.94;;
40103;Laerm;25814;48.550;9.108;2023-07-24T10:06:09;47.86;44.11;55.63;;
40103;Laerm;25814;48.550;9.108;2023-07-24T10:08:36;48.17;43.68;52.73;;
40103;Laerm;25814;48.550;9.108;2023-07-24T10:11:03;47.77;44.67;63.41;;
40103;Laerm;25814;48.550;9.108;2023-07-24T10:13:30;46.88;43.96;51.45;;
40103;Laerm;25814;48.550;9.108;2023-07-24T10:15:57;43.86;38.90;49.21;;
40103;Laerm;25814;48.550;9.108;2023-07-24T10:18:27;45.77;39.02;54.74;;
40103;Laerm;25814;48.550;9.108;2023-07-24T10:21:06;44.62;37.33;55.03;;
40103;Laerm;25814;48.550;9.108;2023-07-24T10:23:39;40.69;33.57;50.17;;
40103;Laerm;25814;48.550;9.108;2023-07-24T10:26:07;49.39;35.00;64.81;;
40103;Laerm;25814;48.550;9.108;2023-07-24T10:28:38;44.70;33.67;61.62;;
40103;Laerm;25814;48.550;9.108;2023-07-24T10:31:07;48.12;36.97;64.88;;
40103;Laerm;25814;48.550;9.108;2023-07-24T10:33:36;44.37;36.72;58.10;;
40103;Laerm;25814;48.550;9.108;2023-07-24T10:36:10;54.16;38.91;71.04;;
40103;Laerm;25814;48.550;9.108;2023-07-24T10:38:40;68.92;43.44;95.27;;
40103;Laerm;25814;48.550;9.108;2023-07-24T10:41:08;50.23;41.79;66.08;;
40103;Laerm;25814;48.550;9.108;2023-07-24T10:43:45;54.82;45.61;64.84;;
40103;Laerm;25814;48.550;9.108;2023-07-24T10:46:13;57.26;53.26;63.55;;
40103;Laerm;25814;48.550;9.108;2023-07-24T10:48:48;58.02;53.55;63.55;;
40103;Laerm;25814;48.550;9.108;2023-07-24T10:51:14;50.92;44.26;57.89;;
40103;Laerm;25814;48.550;9.108;2023-07-24T10:53:44;44.15;39.62;53.83;;
40103;Laerm;25814;48.550;9.108;2023-07-24T10:56:10;40.14;34.29;53.25;;
40103;Laerm;25814;48.550;9.108;2023-07-24T10:58:36;45.67;37.85;53.75;;
40103;Laerm;25814;48.550;9.108;2023-07-24T11:01:06;51.54;43.44;59.08;;
40103;Laerm;25814;48.550;9.108;2023-07-24T11:03:35;47.04;42.14;54.06;;
40103;Laerm;25814;48.550;9.108;2023-07-24T11:06:02;43.01;36.72;52.69;;
40103;Laerm;25814;48.550;9.108;2023-07-24T11:08:29;41.85;36.88;52.40;;
40103;Laerm;25814;48.550;9.108;2023-07-24T11:10:57;43.56;38.57;52.31;;
40103;Laerm;25814;48.550;9.108;2023-07-24T11:13:28;43.46;37.35;52.90;;
40103;Laerm;25814;48.550;9.108;2023-07-24T11:15:55;43.70;39.04;51.25;;
40103;Laerm;25814;48.550;9.108;2023-07-24T11:18:21;46.22;41.57;52.03;;
40103;Laerm;25814;48.550;9.108;2023-07-24T11:20:52;49.53;44.75;55.07;;
40103;Laerm;25814;48.550;9.108;2023-07-24T11:23:19;55.03;47.76;59.43;;
40103;Laerm;25814;48.550;9.108;2023-07-24T11:25:46;56.89;53.12;60.20;;
40103;Laerm;25814;48.550;9.108;2023-07-24T11:28:14;54.01;48.72;59.69;;
40103;Laerm;25814;48.550;9.108;2023-07-24T11:30:41;49.71;45.68;56.57;;
40103;Laerm;25814;48.550;9.108;2023-07-24T11:33:11;41.96;37.22;53.51;;
40103;Laerm;25814;48.550;9.108;2023-07-24T11:35:39;40.21;34.34;54.26;;
40103;Laerm;25814;48.550;9.108;2023-07-24T11:38:08;37.71;32.67;51.32;;
40103;Laerm;25814;48.550;9.108;2023-07-24T11:40:40;39.20;32.75;52.03;;
40103;Laerm;25814;48.550;9.108;2023-07-24T11:43:24;41.12;31.25;61.37;;
40103;Laerm;25814;48.550;9.108;2023-07-24T11:45:52;38.38;30.98;51.00;;
40103;Laerm;25814;48.550;9.108;2023-07-24T11:48:23;36.57;32.12;53.34;;
40103;Laerm;25814;48.550;9.108;2023-07-24T11:50:54;39.16;32.72;56.11;;
40103;Laerm;25814;48.550;9.108;2023-07-24T11:53:31;38.43;32.91;53.93;;
40103;Laerm;25814;48.550;9.108;2023-07-24T11:55:58;36.28;31.87;54.23;;
40103;Laerm;25814;48.550;9.108;2023-07-24T11:58:29;34.98;31.44;45.07;;
40103;Laerm;25814;48.550;9.108;2023-07-24T12:00:55;34.79;31.53;45.70;;
40103;Laerm;25814;48.550;9.108;2023-07-24T12:03:26;34.40;31.35;47.55;;
40103;Laerm;25814;48.550;9.108;2023-07-24T12:05:52;34.85;31.43;43.82;;
40103;Laerm;25814;48.550;9.108;2023-07-24T12:08:21;34.69;31.81;45.67;;
40103;Laerm;25814;48.550;9.108;2023-07-24T12:10:54;34.44;31.61;44.17;;
40103;Laerm;25814;48.550;9.108;2023-07-24T12:13:20;37.85;32.66;46.89;;
40103;Laerm;25814;48.550;9.108;2023-07-24T12:15:48;39.11;32.98;50.10;;
40103;Laerm;25814;48.550;9.108;2023-07-24T12:18:14;40.14;32.02;54.49;;
40103;Laerm;25814;48.550;9.108;2023-07-24T12:20:40;41.13;31.90;66.71;;
40103;Laerm;25814;48.550;9.108;2023-07-24T12:23:06;36.93;31.29;45.25;;
40103;Laerm;25814;48.550;9.108;2023-07-24T12:25:33;37.38;32.68;51.97;;
40103;Laerm;25814;48.550;9.108;2023-07-24T12:27:59;36.95;32.62;45.25;;
40103;Laerm;25814;48.550;9.108;2023-07-24T12:30:25;35.68;31.16;45.37;;
40103;Laerm;25814;48.550;9.108;2023-07-24T12:32:51;36.42;32.70;49.88;;
40103;Laerm;25814;48.550;9.108;2023-07-24T12:35:17;35.80;32.15;45.86;;
40103;Laerm;25814;48.550;9.108;2023-07-24T12:37:44;47.26;33.04;73.01;;
40103;Laerm;25814;48.550;9.108;2023-07-24T12:40:11;35.06;32.23;45.57;;
40103;Laerm;25814;48.550;9.108;2023-07-24T12:42:37;41.12;34.65;51.68;;
40103;Laerm;25814;48.550;9.108;2023-07-24T12:45:04;40.15;33.56;52.86;;
40103;Laerm;25814;48.550;9.108;2023-07-24T12:47:31;37.29;33.48;45.01;;
40103;Laerm;25814;48.550;9.108;2023-07-24T12:49:58;36.05;32.30;52.09;;
40103;Laerm;25814;48.550;9.108;2023-07-24T12:52:25;41.40;31.72;54.22;;
40103;Laerm;25814;48.550;9.108;2023-07-24T12:54:53;38.03;31.87;48.07;;
40103;Laerm;25814;48.550;9.108;2023-07-24T12:57:19;37.12;32.20;48.09;;
40103;Laerm;25814;48.550;9.108;2023-07-24T12:59:45;35.27;31.00;49.27;;
40103;Laerm;25814;48.550;9.108;2023-07-24T13:02:11;38.85;32.37;55.45;;
40103;Laerm;25814;48.550;9.108;2023-07-24T13:04:37;42.89;31.93;60.06;;
40103;Laerm;25814;48.550;9.108;2023-07-24T13:07:03;37.97;31.71;59.99;;
40103;Laerm;25814;48.550;9.108;2023-07-24T13:09:30;41.51;33.42;52.56;;
40103;Laerm;25814;48.550;9.108;2023-07-24T13:11:56;39.04;31.82;50.39;;
40103;Laerm;25814;48.550;9.108;2023-07-24T13:14:22;35.37;31.28;50.15;;
40103;Laerm;25814;48.550;9.108;2023-07-24T13:16:50;38.86;32.28;52.36;;
40103;Laerm;25814;48.550;9.108;2023-07-24T13:19:16;38.75;31.50;56.76;;
40103;Laerm;25814;48.550;9.108;2023-07-24T13:21:42;34.86;31.28;47.91;;
40103;Laerm;25814;48.550;9.108;2023-07-24T13:24:09;36.54;30.71;47.03;;
40103;Laerm;25814;48.550;9.108;2023-07-24T13:26:35;35.97;31.58;44.68;;
40103;Laerm;25814;48.550;9.108;2023-07-24T13:29:02;36.09;31.16;48.99;;
40103;Laerm;25814;48.550;9.108;2023-07-24T13:31:28;35.45;32.19;49.36;;
40103;Laerm;25814;48.550;9.108;2023-07-24T13:33:56;38.04;31.75;62.02;;
40103;Laerm;25814;48.550;9.108;2023-07-24T13:36:22;34.93;30.94;50.92;;
40103;Laerm;25814;48.550;9.108;2023-07-24T13:38:48;37.51;31.79;46.27;;
40103;Laerm;25814;48.550;9.108;2023-07-24T13:41:16;35.86;31.77;40.23;;
40103;Laerm;25814;48.550;9.108;2023-07-24T13:43:42;36.96;33.21;42.20;;
40103;Laerm;25814;48.550;9.108;2023-07-24T13:46:08;36.36;32.19;49.75;;
40103;Laerm;25814;48.550;9.108;2023-07-24T13:48:34;33.70;30.84;40.99;;
40103;Laerm;25814;48.550;9.108;2023-07-24T13:51:00;38.24;32.06;43.05;;
40103;Laerm;25814;48.550;9.108;2023-07-24T13:53:26;40.72;37.43;46.62;;